createdAt,value
2023-04-16T00:02:32.684Z,23.77
2023-04-16T00:06:35.430Z,24.53
2023-04-16T00:10:38.367Z,26.37
2023-04-16T00:14:43.414Z,25.50
2023-04-16T00:18:46.580Z,25.77
2023-04-16T00:22:49.361Z,23.40
2023-04-16T00:26:52.018Z,24.60
2023-04-16T00:30:56.630Z,22.97
2023-04-16T00:34:59.374Z,22.37
2023-04-16T00:39:02.102Z,24.20
2023-04-16T00:43:04.857Z,28.97
2023-04-16T00:47:09.714Z,28.00
2023-04-16T00:51:12.711Z,27.17
2023-04-16T00:55:18.559Z,28.27
2023-04-16T00:59:22.314Z,31.47
2023-04-16T01:03:35.941Z,31.23
2023-04-16T01:07:38.692Z,32.10
2023-04-16T01:11:41.418Z,33.83
2023-04-16T01:15:44.186Z,37.47
2023-04-16T01:19:48.251Z,31.17
2023-04-16T01:23:52.282Z,32.40
2023-04-16T01:27:57.322Z,38.37
2023-04-16T01:31:59.965Z,33.93
2023-04-16T01:36:22.912Z,36.50
2023-04-16T01:40:27.029Z,32.87
2023-04-16T01:44:30.866Z,36.30
2023-04-16T01:48:34.030Z,35.27
2023-04-16T01:52:36.983Z,33.97
2023-04-16T01:56:41.107Z,35.87
2023-04-16T02:00:44.038Z,31.47
2023-04-16T02:04:47.315Z,33.97
2023-04-16T02:08:50.053Z,32.00
2023-04-16T02:12:54.065Z,35.97
2023-04-16T02:16:57.276Z,32.03
2023-04-16T02:21:12.608Z,31.53
2023-04-16T02:25:16.054Z,34.00
2023-04-16T02:29:21.229Z,36.23
2023-04-16T02:33:31.782Z,32.07
2023-04-16T02:37:37.702Z,33.80
2023-04-16T02:41:41.016Z,35.20
2023-04-16T02:45:45.124Z,29.70
2023-04-16T02:49:47.855Z,35.13
2023-04-16T02:53:50.582Z,33.97
2023-04-16T02:57:53.826Z,36.97
2023-04-16T03:01:58.053Z,33.27
2023-04-16T03:06:00.998Z,31.30
2023-04-16T03:10:03.828Z,35.20
2023-04-16T03:14:06.676Z,34.17
2023-04-16T03:18:10.683Z,33.07
2023-04-16T03:22:13.413Z,35.90
2023-04-16T03:26:16.458Z,35.50
2023-04-16T03:30:19.219Z,32.10
2023-04-16T03:34:23.380Z,35.30
2023-04-16T03:38:26.798Z,36.10
2023-04-16T03:42:32.137Z,34.33
2023-04-16T03:46:35.016Z,35.73
2023-04-16T03:50:39.122Z,37.40
2023-04-16T03:54:44.569Z,34.73
2023-04-16T03:59:00.175Z,35.00
2023-04-16T04:03:04.178Z,34.13
2023-04-16T04:07:09.243Z,35.47
2023-04-16T04:11:12.282Z,38.47
2023-04-16T04:15:17.460Z,36.20
2023-04-16T04:19:20.208Z,35.37
2023-04-16T04:23:25.541Z,35.50
2023-04-16T04:27:28.347Z,34.27
2023-04-16T04:31:31.192Z,35.37
2023-04-16T04:35:34.058Z,37.70
2023-04-16T04:39:39.177Z,36.20
2023-04-16T04:43:42.405Z,35.07
2023-04-16T04:47:45.638Z,35.00
2023-04-16T04:51:49.451Z,32.20
2023-04-16T04:55:55.695Z,33.67
2023-04-16T05:00:03.773Z,32.80
2023-04-16T05:04:14.999Z,33.77
2023-04-16T05:08:17.825Z,34.33
2023-04-16T05:12:21.827Z,34.00
2023-04-16T05:16:24.705Z,34.03
2023-04-16T05:20:27.456Z,35.87
2023-04-16T05:24:30.187Z,35.73
2023-04-16T05:28:34.222Z,34.40
2023-04-16T05:32:39.888Z,32.17
2023-04-16T05:36:42.661Z,32.07
2023-04-16T05:40:45.374Z,32.23
2023-04-16T05:44:49.518Z,29.87
2023-04-16T05:48:52.281Z,34.17
2023-04-16T05:52:54.965Z,31.33
2023-04-16T05:56:57.730Z,34.27
2023-04-16T06:01:02.101Z,33.57
2023-04-16T06:05:05.627Z,36.07
2023-04-16T06:09:08.507Z,35.87
2023-04-16T06:13:11.385Z,35.27
2023-04-16T06:17:15.508Z,32.03
2023-04-16T06:21:18.294Z,31.87
2023-04-16T06:25:21.025Z,32.60
2023-04-16T06:29:33.540Z,33.87
2023-04-16T06:33:44.273Z,31.33
2023-04-16T06:37:47.187Z,32.93
2023-04-16T06:41:49.994Z,29.23
2023-04-16T06:45:53.868Z,33.13
2023-04-16T06:49:57.883Z,33.00
2023-04-16T06:54:01.021Z,32.90
2023-04-16T06:58:03.723Z,34.10
2023-04-16T07:02:06.623Z,33.50
2023-04-16T07:06:11.326Z,32.77
2023-04-16T07:10:14.023Z,33.30
2023-04-16T07:14:16.784Z,35.43
2023-04-16T07:18:20.688Z,33.47
2023-04-16T07:22:24.999Z,32.40
2023-04-16T07:26:27.761Z,33.03
2023-04-16T07:30:34.232Z,34.13
2023-04-16T07:34:36.962Z,32.93
2023-04-16T07:38:41.226Z,34.57
2023-04-16T07:42:44.405Z,29.87
2023-04-16T07:46:47.798Z,33.83
2023-04-16T07:50:51.113Z,32.63
2023-04-16T07:54:55.204Z,31.37
2023-04-16T07:59:07.994Z,32.27
2023-04-16T08:03:18.259Z,35.27
2023-04-16T08:07:21.133Z,32.87
2023-04-16T08:11:25.307Z,31.50
2023-04-16T08:15:28.171Z,33.97
2023-04-16T08:19:31.146Z,30.03
2023-04-16T08:23:33.921Z,33.40
2023-04-16T08:27:38.135Z,29.70
2023-04-16T08:31:41.185Z,30.80
2023-04-16T08:35:43.916Z,30.50
2023-04-16T08:39:46.688Z,29.80
2023-04-16T08:43:52.122Z,29.77
2023-04-16T08:47:55.029Z,27.97
2023-04-16T08:51:58.215Z,28.60
2023-04-16T08:56:04.752Z,28.60
2023-04-16T09:00:10.897Z,26.83
2023-04-16T09:04:15.819Z,25.30
2023-04-16T09:08:19.156Z,25.53
2023-04-16T09:12:24.959Z,25.27
2023-04-16T09:16:34.485Z,24.20
2023-04-16T09:20:37.360Z,25.70
2023-04-16T09:24:40.080Z,24.03
2023-04-16T09:28:44.597Z,23.30
2023-04-16T09:32:49.257Z,25.07
2023-04-16T09:36:52.080Z,23.60
2023-04-16T09:41:07.211Z,22.20
2023-04-16T09:45:12.495Z,23.27
2023-04-16T09:49:18.583Z,22.67
2023-04-16T09:53:25.141Z,21.20
2023-04-16T09:57:27.858Z,23.20
2023-04-16T10:01:31.919Z,21.17
2023-04-16T10:05:37.068Z,20.13
2023-04-16T10:09:40.736Z,20.30
2023-04-16T10:13:43.569Z,20.27
2023-04-16T10:17:46.791Z,20.63
2023-04-16T10:21:51.031Z,19.73
2023-04-16T10:25:57.472Z,20.70
2023-04-16T10:30:01.367Z,21.17
2023-04-16T10:34:04.651Z,18.80
2023-04-16T10:42:36.394Z,18.97
2023-04-16T10:46:40.588Z,17.43
2023-04-16T10:50:43.261Z,18.63
2023-04-16T10:54:47.927Z,18.07
2023-04-16T10:58:54.825Z,16.53
2023-04-16T11:02:57.688Z,18.63
2023-04-16T11:07:08.899Z,17.10
2023-04-16T11:11:11.667Z,17.40
2023-04-16T11:15:16.956Z,17.10
2023-04-16T11:19:19.900Z,18.47
2023-04-16T11:23:22.638Z,17.53
2023-04-16T11:27:26.357Z,16.97
2023-04-16T11:31:30.457Z,16.20
2023-04-16T11:35:33.308Z,17.27
2023-04-16T11:39:49.012Z,17.30
2023-04-16T11:43:51.692Z,16.93
2023-04-16T11:47:57.771Z,16.77
2023-04-16T11:52:00.926Z,18.03
2023-04-16T11:56:04.722Z,19.83
2023-04-16T12:00:10.969Z,16.57
2023-04-16T12:04:19.678Z,17.93
2023-04-16T12:08:31.687Z,17.23
2023-04-16T12:12:35.349Z,16.03
2023-04-16T12:16:38.162Z,17.90
2023-04-16T12:20:42.840Z,15.70
2023-04-16T12:24:45.626Z,17.00
2023-04-16T12:28:48.375Z,16.73
2023-04-16T12:32:52.749Z,16.50
2023-04-16T12:37:09.406Z,16.17
2023-04-16T12:41:12.207Z,17.33
2023-04-16T12:45:15.013Z,17.70
2023-04-16T12:49:17.655Z,17.40
2023-04-16T12:53:21.731Z,17.87
2023-04-16T12:57:28.498Z,15.80
2023-04-16T13:01:31.424Z,17.27
2023-04-16T13:05:34.123Z,18.67
2023-04-16T13:09:39.802Z,19.30
2023-04-16T13:13:42.826Z,17.80
2023-04-16T13:17:46.112Z,18.27
2023-04-16T13:21:48.900Z,16.97
2023-04-16T13:25:52.942Z,17.37
2023-04-16T13:29:55.809Z,17.13
2023-04-16T13:33:58.703Z,17.13
2023-04-16T13:38:03.809Z,17.70
2023-04-16T13:42:07.837Z,16.87
2023-04-16T13:46:10.576Z,14.50
2023-04-16T13:50:13.473Z,16.53
2023-04-16T13:54:16.158Z,16.23
2023-04-16T13:58:20.534Z,15.40
2023-04-16T14:02:24.099Z,16.17
2023-04-16T14:06:26.975Z,16.23
2023-04-16T14:10:30.043Z,14.63
2023-04-16T14:14:34.256Z,15.13
2023-04-16T14:18:41.058Z,14.37
2023-04-16T14:22:44.234Z,18.90
2023-04-16T14:26:47.102Z,14.27
2023-04-16T14:30:51.342Z,13.43
2023-04-16T14:34:54.138Z,14.77
2023-04-16T14:38:56.827Z,15.43
2023-04-16T14:42:59.858Z,17.00
2023-04-16T14:47:03.948Z,16.10
2023-04-16T14:51:07.258Z,13.73
2023-04-16T14:55:10.029Z,14.00
2023-04-16T14:59:12.892Z,14.10
2023-04-16T15:03:17.234Z,12.73
2023-04-16T15:07:20.958Z,14.60
2023-04-16T15:11:23.749Z,13.30
2023-04-16T15:15:26.428Z,15.57
2023-04-16T15:19:30.499Z,17.20
2023-04-16T15:23:33.604Z,15.17
2023-04-16T15:27:36.485Z,14.30
2023-04-16T15:31:39.214Z,14.43
2023-04-16T15:35:43.254Z,14.30
2023-04-16T15:39:46.241Z,13.03
2023-04-16T15:43:49.589Z,13.43
2023-04-16T15:47:52.346Z,13.57
2023-04-16T15:51:56.919Z,14.60
2023-04-16T15:55:59.735Z,13.70
2023-04-16T16:00:07.281Z,14.27
2023-04-16T16:04:10.623Z,16.40
2023-04-16T16:08:15.374Z,15.67
2023-04-16T16:12:18.501Z,15.53
2023-04-16T16:16:21.750Z,14.17
2023-04-16T16:20:24.948Z,18.20
2023-04-16T16:24:29.104Z,14.20
2023-04-16T16:28:31.794Z,14.73
2023-04-16T16:32:34.630Z,14.10
2023-04-16T16:36:38.012Z,16.40
2023-04-16T16:40:42.045Z,14.57
2023-04-16T16:44:44.775Z,16.20
2023-04-16T16:48:47.504Z,15.10
2023-04-16T16:52:50.172Z,14.07
2023-04-16T16:56:54.492Z,14.20
2023-04-16T17:00:57.277Z,14.03
2023-04-16T17:05:00.158Z,14.63
2023-04-16T17:09:03.146Z,13.03
2023-04-16T17:13:07.271Z,15.00
2023-04-16T17:17:09.978Z,14.07
2023-04-16T17:21:14.023Z,14.50
2023-04-16T17:25:17.908Z,14.87
2023-04-16T17:29:25.857Z,13.87
2023-04-16T17:33:28.666Z,14.60
2023-04-16T17:37:31.446Z,14.03
2023-04-16T17:41:34.189Z,13.50
2023-04-16T17:45:38.254Z,13.60
2023-04-16T17:49:41.227Z,14.03
2023-04-16T17:53:44.651Z,12.83
2023-04-16T17:57:47.514Z,14.07
2023-04-16T18:01:51.734Z,14.90
2023-04-16T18:05:54.522Z,15.13
2023-04-16T18:09:57.239Z,15.07
2023-04-16T18:13:59.940Z,15.03
2023-04-16T18:18:03.985Z,15.17
2023-04-16T18:22:06.646Z,15.80
2023-04-16T18:26:09.483Z,15.50
2023-04-16T18:34:22.533Z,17.80
2023-04-16T18:38:25.607Z,16.30
2023-04-16T18:42:29.176Z,16.93
2023-04-16T18:46:31.903Z,15.17
2023-04-16T18:50:36.277Z,15.80
2023-04-16T18:54:38.936Z,14.83
2023-04-16T18:58:41.590Z,15.43
2023-04-16T19:02:44.534Z,16.43
2023-04-16T19:06:48.759Z,18.03
2023-04-16T19:10:51.609Z,18.17
2023-04-16T19:14:54.291Z,18.50
2023-04-16T19:18:57.119Z,18.17
2023-04-16T19:23:01.658Z,17.33
2023-04-16T19:27:04.387Z,18.43
2023-04-16T19:31:07.206Z,19.67
2023-04-16T19:35:10.714Z,22.60
2023-04-16T19:39:14.796Z,19.80
2023-04-16T19:43:17.471Z,21.70
2023-04-16T19:47:20.498Z,22.97
2023-04-16T19:51:23.291Z,22.97
2023-04-16T19:55:27.322Z,26.07
2023-04-16T19:59:32.171Z,22.73
2023-04-16T20:03:35.048Z,22.13
2023-04-16T20:07:37.798Z,24.50
2023-04-16T20:11:41.926Z,23.37
2023-04-16T20:15:44.938Z,26.17
2023-04-16T20:19:49.660Z,24.93
2023-04-16T20:23:52.402Z,26.60
2023-04-16T20:27:57.677Z,23.63
2023-04-16T20:32:00.457Z,23.67
2023-04-16T20:36:03.174Z,24.00
2023-04-16T20:40:08.851Z,23.30
2023-04-16T20:44:18.126Z,23.93
2023-04-16T20:48:20.900Z,22.20
2023-04-16T20:52:23.618Z,23.37
2023-04-16T20:56:26.411Z,23.30
2023-04-16T21:00:30.544Z,23.07
2023-04-16T21:04:33.435Z,24.80
2023-04-16T21:08:36.496Z,24.60
2023-04-16T21:12:39.318Z,23.50
2023-04-16T21:16:43.363Z,25.80
2023-04-16T21:20:46.111Z,25.93
2023-04-16T21:24:48.846Z,26.63
2023-04-16T21:28:52.601Z,26.03
2023-04-16T21:32:58.002Z,25.37
2023-04-16T21:37:00.832Z,26.60
2023-04-16T21:41:03.537Z,26.53
2023-04-16T21:45:07.539Z,29.07
2023-04-16T21:49:11.772Z,27.03
2023-04-16T21:53:14.644Z,26.23
2023-04-16T21:57:17.382Z,28.93
2023-04-16T22:01:20.175Z,27.00
2023-04-16T22:05:24.205Z,27.40
2023-04-16T22:09:26.839Z,27.20
2023-04-16T22:13:32.121Z,30.13
2023-04-16T22:17:35.231Z,29.53
2023-04-16T22:21:48.313Z,29.60
2023-04-16T22:25:51.096Z,28.37
2023-04-16T22:29:53.732Z,28.70
2023-04-16T22:33:56.490Z,32.27
2023-04-16T22:38:00.541Z,29.47
2023-04-16T22:42:03.426Z,30.73
2023-04-16T22:46:07.951Z,29.03
2023-04-16T22:50:12.162Z,30.13
2023-04-16T22:54:16.353Z,29.60
2023-04-16T22:58:19.009Z,30.93
2023-04-16T23:02:22.075Z,30.67
2023-04-16T23:06:24.929Z,30.87
2023-04-16T23:10:28.977Z,29.27
2023-04-16T23:14:31.641Z,30.93
2023-04-16T23:18:34.517Z,30.50
2023-04-16T23:22:37.520Z,30.57
2023-04-16T23:26:41.599Z,33.50
2023-04-16T23:30:44.256Z,32.53
2023-04-16T23:34:46.971Z,32.47
2023-04-16T23:38:49.746Z,32.13
2023-04-16T23:42:53.839Z,29.33
2023-04-16T23:46:57.222Z,31.47
2023-04-16T23:51:00.174Z,34.20
2023-04-16T23:55:03.001Z,33.50
2023-04-16T23:59:08.593Z,34.50
